sensor_id;sensor_type;location;lat;lon;timestamp;P1;durP1;ratioP1;P2;durP2;ratioP2
75450;SDS011;64029;48.244;9.188;2024-02-04T00:00:36;2.10;;;1.90;;
75450;SDS011;64029;48.244;9.188;2024-02-04T00:03:03;2.90;;;2.60;;
75450;SDS011;64029;48.244;9.188;2024-02-04T00:05:29;2.97;;;2.03;;
75450;SDS011;64029;48.244;9.188;2024-02-04T00:07:56;3.60;;;3.07;;
75450;SDS011;64029;48.244;9.188;2024-02-04T00:10:23;2.67;;;2.47;;
75450;SDS011;64029;48.244;9.188;2024-02-04T00:12:51;3.27;;;2.33;;
75450;SDS011;64029;48.244;9.188;2024-02-04T00:15:20;3.40;;;2.70;;
75450;SDS011;64029;48.244;9.188;2024-02-04T00:17:47;3.17;;;2.60;;
75450;SDS011;64029;48.244;9.188;2024-02-04T00:20:14;2.30;;;2.10;;
75450;SDS011;64029;48.244;9.188;2024-02-04T00:22:41;3.63;;;2.10;;
75450;SDS011;64029;48.244;9.188;2024-02-04T00:25:07;2.60;;;2.40;;
75450;SDS011;64029;48.244;9.188;2024-02-04T00:27:36;2.87;;;2.13;;
75450;SDS011;64029;48.244;9.188;2024-02-04T00:30:04;2.57;;;2.27;;
75450;SDS011;64029;48.244;9.188;2024-02-04T00:32:33;2.87;;;2.30;;
75450;SDS011;64029;48.244;9.188;2024-02-04T00:34:59;2.27;;;2.07;;
75450;SDS011;64029;48.244;9.188;2024-02-04T00:37:27;2.60;;;2.33;;
75450;SDS011;64029;48.244;9.188;2024-02-04T00:39:54;2.37;;;2.17;;
75450;SDS011;64029;48.244;9.188;2024-02-04T00:42:21;3.10;;;2.47;;
75450;SDS011;64029;48.244;9.188;2024-02-04T00:44:48;2.80;;;2.13;;
75450;SDS011;64029;48.244;9.188;2024-02-04T00:47:14;3.03;;;2.23;;
75450;SDS011;64029;48.244;9.188;2024-02-04T00:49:43;2.73;;;2.30;;
75450;SDS011;64029;48.244;9.188;2024-02-04T00:52:09;2.63;;;2.03;;
75450;SDS011;64029;48.244;9.188;2024-02-04T00:54:36;2.33;;;2.10;;
75450;SDS011;64029;48.244;9.188;2024-02-04T00:57:03;2.80;;;2.23;;
75450;SDS011;64029;48.244;9.188;2024-02-04T00:59:30;2.10;;;1.90;;
75450;SDS011;64029;48.244;9.188;2024-02-04T01:01:57;2.43;;;1.83;;
75450;SDS011;64029;48.244;9.188;2024-02-04T01:04:24;3.40;;;1.97;;
75450;SDS011;64029;48.244;9.188;2024-02-04T01:06:52;1.93;;;1.83;;
75450;SDS011;64029;48.244;9.188;2024-02-04T01:09:19;2.63;;;1.80;;
75450;SDS011;64029;48.244;9.188;2024-02-04T01:11:46;2.03;;;1.83;;
75450;SDS011;64029;48.244;9.188;2024-02-04T01:14:13;2.37;;;2.17;;
75450;SDS011;64029;48.244;9.188;2024-02-04T01:16:40;2.37;;;2.17;;
75450;SDS011;64029;48.244;9.188;2024-02-04T01:19:06;2.63;;;2.10;;
75450;SDS011;64029;48.244;9.188;2024-02-04T01:21:33;2.20;;;1.73;;
75450;SDS011;64029;48.244;9.188;2024-02-04T01:24:01;2.70;;;2.43;;
75450;SDS011;64029;48.244;9.188;2024-02-04T01:26:28;2.83;;;2.60;;
75450;SDS011;64029;48.244;9.188;2024-02-04T01:28:55;3.43;;;2.33;;
75450;SDS011;64029;48.244;9.188;2024-02-04T01:31:22;2.30;;;1.87;;
75450;SDS011;64029;48.244;9.188;2024-02-04T01:33:49;2.40;;;2.07;;
75450;SDS011;64029;48.244;9.188;2024-02-04T01:36:16;2.07;;;1.90;;
75450;SDS011;64029;48.244;9.188;2024-02-04T01:38:42;3.33;;;2.33;;
75450;SDS011;64029;48.244;9.188;2024-02-04T01:41:11;3.30;;;1.73;;
75450;SDS011;64029;48.244;9.188;2024-02-04T01:43:37;2.50;;;1.97;;
75450;SDS011;64029;48.244;9.188;2024-02-04T01:46:04;2.80;;;2.43;;
75450;SDS011;64029;48.244;9.188;2024-02-04T01:48:31;2.07;;;1.87;;
75450;SDS011;64029;48.244;9.188;2024-02-04T01:50:58;1.90;;;1.80;;
75450;SDS011;64029;48.244;9.188;2024-02-04T01:53:26;2.40;;;1.90;;
75450;SDS011;64029;48.244;9.188;2024-02-04T01:55:54;2.07;;;1.87;;
75450;SDS011;64029;48.244;9.188;2024-02-04T01:58:22;2.10;;;1.70;;
75450;SDS011;64029;48.244;9.188;2024-02-04T02:00:50;1.60;;;1.50;;
75450;SDS011;64029;48.244;9.188;2024-02-04T02:03:17;2.13;;;1.73;;
75450;SDS011;64029;48.244;9.188;2024-02-04T02:05:45;2.87;;;1.70;;
75450;SDS011;64029;48.244;9.188;2024-02-04T02:08:15;1.83;;;1.50;;
75450;SDS011;64029;48.244;9.188;2024-02-04T02:10:43;2.80;;;2.33;;
75450;SDS011;64029;48.244;9.188;2024-02-04T02:13:14;2.33;;;1.90;;
75450;SDS011;64029;48.244;9.188;2024-02-04T02:15:45;3.40;;;2.10;;
75450;SDS011;64029;48.244;9.188;2024-02-04T02:18:16;3.97;;;1.83;;
75450;SDS011;64029;48.244;9.188;2024-02-04T02:20:54;2.07;;;1.80;;
75450;SDS011;64029;48.244;9.188;2024-02-04T02:23:35;2.50;;;1.97;;
75450;SDS011;64029;48.244;9.188;2024-02-04T02:26:15;2.10;;;1.90;;
75450;SDS011;64029;48.244;9.188;2024-02-04T02:28:43;3.20;;;2.00;;
75450;SDS011;64029;48.244;9.188;2024-02-04T02:31:10;1.93;;;1.80;;
75450;SDS011;64029;48.244;9.188;2024-02-04T02:33:37;2.30;;;1.70;;
75450;SDS011;64029;48.244;9.188;2024-02-04T02:36:06;1.80;;;1.70;;
75450;SDS011;64029;48.244;9.188;2024-02-04T02:38:41;2.23;;;1.87;;
75450;SDS011;64029;48.244;9.188;2024-02-04T02:41:11;2.13;;;1.73;;
75450;SDS011;64029;48.244;9.188;2024-02-04T02:43:42;3.13;;;2.00;;
75450;SDS011;64029;48.244;9.188;2024-02-04T02:46:10;2.03;;;1.57;;
75450;SDS011;64029;48.244;9.188;2024-02-04T02:48:38;2.10;;;1.70;;
75450;SDS011;64029;48.244;9.188;2024-02-04T02:51:05;2.57;;;1.80;;
75450;SDS011;64029;48.244;9.188;2024-02-04T02:53:32;1.93;;;1.80;;
75450;SDS011;64029;48.244;9.188;2024-02-04T02:55:58;2.80;;;2.50;;
75450;SDS011;64029;48.244;9.188;2024-02-04T02:58:25;3.50;;;2.20;;
75450;SDS011;64029;48.244;9.188;2024-02-04T03:00:53;2.20;;;2.00;;
75450;SDS011;64029;48.244;9.188;2024-02-04T03:03:20;2.33;;;2.13;;
75450;SDS011;64029;48.244;9.188;2024-02-04T03:05:47;2.40;;;2.20;;
75450;SDS011;64029;48.244;9.188;2024-02-04T03:08:14;3.50;;;2.60;;
75450;SDS011;64029;48.244;9.188;2024-02-04T03:10:41;1.80;;;1.70;;
75450;SDS011;64029;48.244;9.188;2024-02-04T03:13:08;2.30;;;2.10;;
75450;SDS011;64029;48.244;9.188;2024-02-04T03:15:35;2.07;;;1.87;;
75450;SDS011;64029;48.244;9.188;2024-02-04T03:18:03;2.30;;;2.10;;
75450;SDS011;64029;48.244;9.188;2024-02-04T03:20:30;2.80;;;1.60;;
75450;SDS011;64029;48.244;9.188;2024-02-04T03:22:57;1.43;;;1.30;;
75450;SDS011;64029;48.244;9.188;2024-02-04T03:25:24;3.17;;;2.10;;
75450;SDS011;64029;48.244;9.188;2024-02-04T03:27:53;1.80;;;1.60;;
75450;SDS011;64029;48.244;9.188;2024-02-04T03:30:20;2.00;;;1.80;;
75450;SDS011;64029;48.244;9.188;2024-02-04T03:32:46;2.60;;;1.83;;
75450;SDS011;64029;48.244;9.188;2024-02-04T03:35:15;1.83;;;1.73;;
75450;SDS011;64029;48.244;9.188;2024-02-04T03:37:41;2.00;;;1.90;;
75450;SDS011;64029;48.244;9.188;2024-02-04T03:40:09;2.27;;;2.00;;
75450;SDS011;64029;48.244;9.188;2024-02-04T03:42:36;3.00;;;2.10;;
75450;SDS011;64029;48.244;9.188;2024-02-04T03:45:04;2.87;;;2.10;;
75450;SDS011;64029;48.244;9.188;2024-02-04T03:47:31;2.90;;;1.80;;
75450;SDS011;64029;48.244;9.188;2024-02-04T03:49:58;3.43;;;1.97;;
75450;SDS011;64029;48.244;9.188;2024-02-04T03:52:26;2.53;;;1.93;;
75450;SDS011;64029;48.244;9.188;2024-02-04T03:54:53;1.83;;;1.73;;
75450;SDS011;64029;48.244;9.188;2024-02-04T03:57:20;2.07;;;1.87;;
75450;SDS011;64029;48.244;9.188;2024-02-04T03:59:47;2.50;;;1.53;;
75450;SDS011;64029;48.244;9.188;2024-02-04T04:02:13;3.63;;;1.40;;
75450;SDS011;64029;48.244;9.188;2024-02-04T04:04:40;1.23;;;1.13;;
75450;SDS011;64029;48.244;9.188;2024-02-04T04:07:08;1.30;;;1.20;;
75450;SDS011;64029;48.244;9.188;2024-02-04T04:09:36;2.10;;;1.60;;
75450;SDS011;64029;48.244;9.188;2024-02-04T04:12:03;1.50;;;1.40;;
75450;SDS011;64029;48.244;9.188;2024-02-04T04:14:30;1.60;;;1.50;;
75450;SDS011;64029;48.244;9.188;2024-02-04T04:16:57;1.83;;;1.43;;
75450;SDS011;64029;48.244;9.188;2024-02-04T04:19:24;1.50;;;1.20;;
75450;SDS011;64029;48.244;9.188;2024-02-04T04:21:50;1.97;;;1.80;;
75450;SDS011;64029;48.244;9.188;2024-02-04T04:24:17;2.70;;;1.87;;
75450;SDS011;64029;48.244;9.188;2024-02-04T04:26:46;2.03;;;1.70;;
75450;SDS011;64029;48.244;9.188;2024-02-04T04:29:13;1.93;;;1.20;;
75450;SDS011;64029;48.244;9.188;2024-02-04T04:31:39;1.73;;;1.50;;
75450;SDS011;64029;48.244;9.188;2024-02-04T04:34:06;1.73;;;1.50;;
75450;SDS011;64029;48.244;9.188;2024-02-04T04:36:33;1.50;;;1.40;;
75450;SDS011;64029;48.244;9.188;2024-02-04T04:39:00;1.47;;;1.37;;
75450;SDS011;64029;48.244;9.188;2024-02-04T04:41:27;1.80;;;1.27;;
75450;SDS011;64029;48.244;9.188;2024-02-04T04:43:55;1.63;;;1.37;;
75450;SDS011;64029;48.244;9.188;2024-02-04T04:46:22;2.10;;;1.40;;
75450;SDS011;64029;48.244;9.188;2024-02-04T04:48:49;1.80;;;1.47;;
75450;SDS011;64029;48.244;9.188;2024-02-04T04:51:17;1.70;;;1.30;;
75450;SDS011;64029;48.244;9.188;2024-02-04T04:53:44;1.83;;;1.40;;
75450;SDS011;64029;48.244;9.188;2024-02-04T04:56:11;1.50;;;1.27;;
75450;SDS011;64029;48.244;9.188;2024-02-04T04:58:37;1.30;;;1.20;;
75450;SDS011;64029;48.244;9.188;2024-02-04T05:01:05;1.40;;;1.10;;
75450;SDS011;64029;48.244;9.188;2024-02-04T05:03:32;2.07;;;1.37;;
75450;SDS011;64029;48.244;9.188;2024-02-04T05:05:59;1.30;;;1.20;;
75450;SDS011;64029;48.244;9.188;2024-02-04T05:08:28;1.50;;;1.20;;
75450;SDS011;64029;48.244;9.188;2024-02-04T05:10:54;1.10;;;1.00;;
75450;SDS011;64029;48.244;9.188;2024-02-04T05:13:21;1.33;;;1.23;;
75450;SDS011;64029;48.244;9.188;2024-02-04T05:15:48;1.30;;;1.03;;
75450;SDS011;64029;48.244;9.188;2024-02-04T05:18:16;1.10;;;0.90;;
75450;SDS011;64029;48.244;9.188;2024-02-04T05:20:43;1.30;;;1.10;;
75450;SDS011;64029;48.244;9.188;2024-02-04T05:23:10;3.97;;;1.20;;
75450;SDS011;64029;48.244;9.188;2024-02-04T05:25:37;1.00;;;0.90;;
75450;SDS011;64029;48.244;9.188;2024-02-04T05:28:04;1.30;;;1.00;;
75450;SDS011;64029;48.244;9.188;2024-02-04T05:30:32;3.60;;;1.00;;
75450;SDS011;64029;48.244;9.188;2024-02-04T05:32:59;1.33;;;1.07;;
75450;SDS011;64029;48.244;9.188;2024-02-04T05:35:27;2.57;;;1.40;;
75450;SDS011;64029;48.244;9.188;2024-02-04T05:37:54;1.33;;;1.23;;
75450;SDS011;64029;48.244;9.188;2024-02-04T05:40:20;1.50;;;1.30;;
75450;SDS011;64029;48.244;9.188;2024-02-04T05:42:47;1.40;;;1.20;;
75450;SDS011;64029;48.244;9.188;2024-02-04T05:45:14;1.50;;;1.07;;
75450;SDS011;64029;48.244;9.188;2024-02-04T05:47:41;1.40;;;0.93;;
75450;SDS011;64029;48.244;9.188;2024-02-04T05:50:08;1.20;;;1.10;;
75450;SDS011;64029;48.244;9.188;2024-02-04T05:52:36;1.30;;;0.90;;
75450;SDS011;64029;48.244;9.188;2024-02-04T05:55:03;1.30;;;0.90;;
75450;SDS011;64029;48.244;9.188;2024-02-04T05:57:31;1.40;;;1.30;;
75450;SDS011;64029;48.244;9.188;2024-02-04T05:59:58;4.80;;;1.50;;
75450;SDS011;64029;48.244;9.188;2024-02-04T06:02:24;1.50;;;1.40;;
75450;SDS011;64029;48.244;9.188;2024-02-04T06:04:51;2.90;;;1.40;;
75450;SDS011;64029;48.244;9.188;2024-02-04T06:07:18;1.30;;;1.20;;
75450;SDS011;64029;48.244;9.188;2024-02-04T06:09:46;1.40;;;1.10;;
75450;SDS011;64029;48.244;9.188;2024-02-04T06:12:13;0.90;;;0.90;;
75450;SDS011;64029;48.244;9.188;2024-02-04T06:14:40;1.07;;;0.80;;
75450;SDS011;64029;48.244;9.188;2024-02-04T06:17:06;1.70;;;1.43;;
75450;SDS011;64029;48.244;9.188;2024-02-04T06:19:35;1.73;;;1.63;;
75450;SDS011;64029;48.244;9.188;2024-02-04T06:22:02;2.80;;;2.10;;
75450;SDS011;64029;48.244;9.188;2024-02-04T06:24:29;3.27;;;2.97;;
75450;SDS011;64029;48.244;9.188;2024-02-04T06:26:57;3.20;;;2.70;;
75450;SDS011;64029;48.244;9.188;2024-02-04T06:29:24;3.30;;;3.00;;
75450;SDS011;64029;48.244;9.188;2024-02-04T06:31:50;3.97;;;3.40;;
75450;SDS011;64029;48.244;9.188;2024-02-04T06:34:17;5.73;;;3.07;;
75450;SDS011;64029;48.244;9.188;2024-02-04T06:36:44;4.00;;;2.90;;
75450;SDS011;64029;48.244;9.188;2024-02-04T06:39:11;4.23;;;3.20;;
75450;SDS011;64029;48.244;9.188;2024-02-04T06:41:38;4.93;;;3.20;;
75450;SDS011;64029;48.244;9.188;2024-02-04T06:44:06;3.60;;;3.17;;
75450;SDS011;64029;48.244;9.188;2024-02-04T06:46:33;4.00;;;3.17;;
75450;SDS011;64029;48.244;9.188;2024-02-04T06:49:00;5.77;;;3.10;;
75450;SDS011;64029;48.244;9.188;2024-02-04T06:51:27;5.00;;;3.50;;
75450;SDS011;64029;48.244;9.188;2024-02-04T06:53:54;4.10;;;3.40;;
75450;SDS011;64029;48.244;9.188;2024-02-04T06:56:21;4.70;;;3.70;;
75450;SDS011;64029;48.244;9.188;2024-02-04T06:58:48;5.13;;;3.50;;
75450;SDS011;64029;48.244;9.188;2024-02-04T07:01:16;5.20;;;3.30;;
75450;SDS011;64029;48.244;9.188;2024-02-04T07:03:43;5.07;;;3.47;;
75450;SDS011;64029;48.244;9.188;2024-02-04T07:06:10;4.27;;;3.60;;
75450;SDS011;64029;48.244;9.188;2024-02-04T07:08:37;3.00;;;2.60;;
75450;SDS011;64029;48.244;9.188;2024-02-04T07:11:04;3.50;;;3.20;;
75450;SDS011;64029;48.244;9.188;2024-02-04T07:13:31;3.37;;;2.80;;
75450;SDS011;64029;48.244;9.188;2024-02-04T07:15:58;4.80;;;2.90;;
75450;SDS011;64029;48.244;9.188;2024-02-04T07:18:26;4.13;;;2.67;;
75450;SDS011;64029;48.244;9.188;2024-02-04T07:20:53;5.10;;;3.07;;
75450;SDS011;64029;48.244;9.188;2024-02-04T07:23:20;5.53;;;4.20;;
75450;SDS011;64029;48.244;9.188;2024-02-04T07:25:47;3.67;;;3.20;;
75450;SDS011;64029;48.244;9.188;2024-02-04T07:28:15;5.70;;;3.37;;
75450;SDS011;64029;48.244;9.188;2024-02-04T07:30:42;4.73;;;3.53;;
75450;SDS011;64029;48.244;9.188;2024-02-04T07:33:09;4.17;;;3.20;;
75450;SDS011;64029;48.244;9.188;2024-02-04T07:35:37;4.83;;;3.33;;
75450;SDS011;64029;48.244;9.188;2024-02-04T07:38:04;3.10;;;2.73;;
75450;SDS011;64029;48.244;9.188;2024-02-04T07:40:30;6.73;;;3.30;;
75450;SDS011;64029;48.244;9.188;2024-02-04T07:42:57;3.10;;;2.80;;
75450;SDS011;64029;48.244;9.188;2024-02-04T07:45:24;3.80;;;2.87;;
75450;SDS011;64029;48.244;9.188;2024-02-04T07:47:51;3.50;;;3.20;;
75450;SDS011;64029;48.244;9.188;2024-02-04T07:50:18;3.53;;;3.20;;
75450;SDS011;64029;48.244;9.188;2024-02-04T07:52:46;3.70;;;3.03;;
75450;SDS011;64029;48.244;9.188;2024-02-04T07:55:13;3.00;;;2.70;;
75450;SDS011;64029;48.244;9.188;2024-02-04T07:57:40;4.20;;;3.30;;
75450;SDS011;64029;48.244;9.188;2024-02-04T08:00:07;4.73;;;3.17;;
75450;SDS011;64029;48.244;9.188;2024-02-04T08:02:35;5.00;;;3.67;;
75450;SDS011;64029;48.244;9.188;2024-02-04T08:05:02;3.83;;;3.20;;
75450;SDS011;64029;48.244;9.188;2024-02-04T08:07:29;4.50;;;3.70;;
75450;SDS011;64029;48.244;9.188;2024-02-04T08:09:58;3.40;;;3.10;;
75450;SDS011;64029;48.244;9.188;2024-02-04T08:12:25;5.13;;;3.93;;
75450;SDS011;64029;48.244;9.188;2024-02-04T08:14:52;4.90;;;3.53;;
75450;SDS011;64029;48.244;9.188;2024-02-04T08:17:19;5.97;;;4.00;;
75450;SDS011;64029;48.244;9.188;2024-02-04T08:19:45;7.17;;;3.80;;
75450;SDS011;64029;48.244;9.188;2024-02-04T08:22:12;4.33;;;3.23;;
75450;SDS011;64029;48.244;9.188;2024-02-04T08:24:39;3.57;;;3.03;;
75450;SDS011;64029;48.244;9.188;2024-02-04T08:27:07;3.07;;;2.60;;
75450;SDS011;64029;48.244;9.188;2024-02-04T08:29:34;4.67;;;3.27;;
75450;SDS011;64029;48.244;9.188;2024-02-04T08:32:07;3.77;;;3.10;;
75450;SDS011;64029;48.244;9.188;2024-02-04T08:34:34;3.60;;;2.90;;
75450;SDS011;64029;48.244;9.188;2024-02-04T08:37:02;3.30;;;3.00;;
75450;SDS011;64029;48.244;9.188;2024-02-04T08:39:31;4.23;;;3.00;;
75450;SDS011;64029;48.244;9.188;2024-02-04T08:41:58;14.80;;;3.30;;
75450;SDS011;64029;48.244;9.188;2024-02-04T08:44:26;4.33;;;2.90;;
75450;SDS011;64029;48.244;9.188;2024-02-04T08:46:53;3.03;;;2.50;;
75450;SDS011;64029;48.244;9.188;2024-02-04T08:49:20;5.77;;;3.20;;
75450;SDS011;64029;48.244;9.188;2024-02-04T08:51:47;4.43;;;2.57;;
75450;SDS011;64029;48.244;9.188;2024-02-04T08:54:14;4.57;;;2.70;;
75450;SDS011;64029;48.244;9.188;2024-02-04T08:56:42;2.43;;;2.20;;
75450;SDS011;64029;48.244;9.188;2024-02-04T08:59:09;4.93;;;2.50;;
75450;SDS011;64029;48.244;9.188;2024-02-04T09:01:37;3.70;;;2.67;;
75450;SDS011;64029;48.244;9.188;2024-02-04T09:04:04;2.30;;;2.10;;
75450;SDS011;64029;48.244;9.188;2024-02-04T09:06:31;2.53;;;2.10;;
75450;SDS011;64029;48.244;9.188;2024-02-04T09:08:58;7.30;;;2.20;;
75450;SDS011;64029;48.244;9.188;2024-02-04T09:11:24;2.80;;;2.20;;
75450;SDS011;64029;48.244;9.188;2024-02-04T09:13:51;3.10;;;2.17;;
75450;SDS011;64029;48.244;9.188;2024-02-04T09:16:18;3.73;;;2.70;;
75450;SDS011;64029;48.244;9.188;2024-02-04T09:18:46;2.70;;;2.03;;
75450;SDS011;64029;48.244;9.188;2024-02-04T09:21:13;2.80;;;2.13;;
75450;SDS011;64029;48.244;9.188;2024-02-04T09:23:40;1.70;;;1.60;;
75450;SDS011;64029;48.244;9.188;2024-02-04T09:26:07;2.67;;;1.80;;
75450;SDS011;64029;48.244;9.188;2024-02-04T09:28:34;1.80;;;1.60;;
75450;SDS011;64029;48.244;9.188;2024-02-04T09:31:02;3.57;;;1.90;;
75450;SDS011;64029;48.244;9.188;2024-02-04T09:33:29;2.67;;;1.90;;
75450;SDS011;64029;48.244;9.188;2024-02-04T09:35:57;3.13;;;2.03;;
75450;SDS011;64029;48.244;9.188;2024-02-04T09:38:24;2.07;;;1.60;;
75450;SDS011;64029;48.244;9.188;2024-02-04T09:40:51;1.80;;;1.60;;
75450;SDS011;64029;48.244;9.188;2024-02-04T09:43:18;1.80;;;1.57;;
75450;SDS011;64029;48.244;9.188;2024-02-04T09:45:45;2.60;;;1.93;;
75450;SDS011;64029;48.244;9.188;2024-02-04T09:48:14;4.10;;;2.20;;
75450;SDS011;64029;48.244;9.188;2024-02-04T09:50:45;2.10;;;1.90;;
75450;SDS011;64029;48.244;9.188;2024-02-04T09:53:14;2.80;;;1.93;;
75450;SDS011;64029;48.244;9.188;2024-02-04T09:55:47;2.00;;;1.80;;
75450;SDS011;64029;48.244;9.188;2024-02-04T09:58:16;6.80;;;1.80;;
75450;SDS011;64029;48.244;9.188;2024-02-04T10:00:43;2.10;;;1.90;;
75450;SDS011;64029;48.244;9.188;2024-02-04T10:03:12;2.57;;;2.00;;
75450;SDS011;64029;48.244;9.188;2024-02-04T10:05:39;2.47;;;1.97;;
75450;SDS011;64029;48.244;9.188;2024-02-04T10:08:06;2.97;;;2.03;;
75450;SDS011;64029;48.244;9.188;2024-02-04T10:10:34;1.60;;;1.50;;
75450;SDS011;64029;48.244;9.188;2024-02-04T10:13:04;3.50;;;2.33;;
75450;SDS011;64029;48.244;9.188;2024-02-04T10:15:32;3.37;;;1.97;;
75450;SDS011;64029;48.244;9.188;2024-02-04T10:18:02;2.90;;;2.30;;
75450;SDS011;64029;48.244;9.188;2024-02-04T10:20:30;3.43;;;2.07;;
75450;SDS011;64029;48.244;9.188;2024-02-04T10:22:57;2.73;;;2.03;;
75450;SDS011;64029;48.244;9.188;2024-02-04T10:25:23;4.73;;;2.33;;
75450;SDS011;64029;48.244;9.188;2024-02-04T10:27:51;1.90;;;1.47;;
75450;SDS011;64029;48.244;9.188;2024-02-04T10:30:19;2.50;;;1.50;;
75450;SDS011;64029;48.244;9.188;2024-02-04T10:32:46;2.00;;;1.80;;
75450;SDS011;64029;48.244;9.188;2024-02-04T10:35:16;4.40;;;1.67;;
75450;SDS011;64029;48.244;9.188;2024-02-04T10:37:44;2.30;;;1.57;;
75450;SDS011;64029;48.244;9.188;2024-02-04T10:40:11;2.27;;;1.53;;
75450;SDS011;64029;48.244;9.188;2024-02-04T10:42:38;1.87;;;1.40;;
75450;SDS011;64029;48.244;9.188;2024-02-04T10:45:09;1.97;;;1.40;;
75450;SDS011;64029;48.244;9.188;2024-02-04T10:47:38;1.70;;;1.50;;
75450;SDS011;64029;48.244;9.188;2024-02-04T10:50:06;2.20;;;1.40;;
75450;SDS011;64029;48.244;9.188;2024-02-04T10:52:36;1.50;;;1.03;;
75450;SDS011;64029;48.244;9.188;2024-02-04T10:55:06;2.30;;;1.90;;
75450;SDS011;64029;48.244;9.188;2024-02-04T10:57:35;1.73;;;1.60;;
75450;SDS011;64029;48.244;9.188;2024-02-04T11:00:02;1.63;;;0.93;;
75450;SDS011;64029;48.244;9.188;2024-02-04T11:02:35;1.07;;;0.77;;
75450;SDS011;64029;48.244;9.188;2024-02-04T11:05:02;0.80;;;0.70;;
75450;SDS011;64029;48.244;9.188;2024-02-04T11:07:31;1.70;;;1.03;;
75450;SDS011;64029;48.244;9.188;2024-02-04T11:09:59;2.97;;;1.07;;
75450;SDS011;64029;48.244;9.188;2024-02-04T11:12:27;1.67;;;0.80;;
75450;SDS011;64029;48.244;9.188;2024-02-04T11:15:00;1.00;;;0.90;;
75450;SDS011;64029;48.244;9.188;2024-02-04T11:17:45;1.17;;;0.90;;
75450;SDS011;64029;48.244;9.188;2024-02-04T11:20:27;1.40;;;0.80;;
75450;SDS011;64029;48.244;9.188;2024-02-04T11:23:17;1.80;;;0.63;;
75450;SDS011;64029;48.244;9.188;2024-02-04T11:26:01;0.83;;;0.77;;
75450;SDS011;64029;48.244;9.188;2024-02-04T11:28:30;1.63;;;0.90;;
75450;SDS011;64029;48.244;9.188;2024-02-04T11:30:58;1.77;;;0.90;;
75450;SDS011;64029;48.244;9.188;2024-02-04T11:33:26;1.10;;;0.97;;
75450;SDS011;64029;48.244;9.188;2024-02-04T11:36:02;1.43;;;0.90;;
75450;SDS011;64029;48.244;9.188;2024-02-04T11:38:32;1.60;;;1.10;;
75450;SDS011;64029;48.244;9.188;2024-02-04T11:41:02;1.10;;;0.90;;
75450;SDS011;64029;48.244;9.188;2024-02-04T11:43:32;1.43;;;0.87;;
75450;SDS011;64029;48.244;9.188;2024-02-04T11:45:59;0.93;;;0.80;;
75450;SDS011;64029;48.244;9.188;2024-02-04T11:48:30;1.90;;;0.90;;
75450;SDS011;64029;48.244;9.188;2024-02-04T11:50:58;1.63;;;0.90;;
75450;SDS011;64029;48.244;9.188;2024-02-04T11:53:26;1.33;;;0.90;;
75450;SDS011;64029;48.244;9.188;2024-02-04T11:55:57;1.23;;;1.10;;
75450;SDS011;64029;48.244;9.188;2024-02-04T11:58:25;0.83;;;0.73;;
75450;SDS011;64029;48.244;9.188;2024-02-04T12:00:52;0.90;;;0.70;;
75450;SDS011;64029;48.244;9.188;2024-02-04T12:03:30;1.20;;;1.10;;
75450;SDS011;64029;48.244;9.188;2024-02-04T12:05:57;1.87;;;0.80;;
75450;SDS011;64029;48.244;9.188;2024-02-04T12:08:24;1.03;;;0.90;;
75450;SDS011;64029;48.244;9.188;2024-02-04T12:10:53;1.47;;;0.77;;
75450;SDS011;64029;48.244;9.188;2024-02-04T12:13:21;1.37;;;0.90;;
75450;SDS011;64029;48.244;9.188;2024-02-04T12:15:48;0.70;;;0.70;;
75450;SDS011;64029;48.244;9.188;2024-02-04T12:18:15;1.20;;;1.10;;
75450;SDS011;64029;48.244;9.188;2024-02-04T12:20:46;0.87;;;0.70;;
75450;SDS011;64029;48.244;9.188;2024-02-04T12:23:14;1.87;;;0.77;;
75450;SDS011;64029;48.244;9.188;2024-02-04T12:25:42;0.90;;;0.83;;
75450;SDS011;64029;48.244;9.188;2024-02-04T12:28:09;1.00;;;0.80;;
75450;SDS011;64029;48.244;9.188;2024-02-04T12:30:36;0.90;;;0.70;;
75450;SDS011;64029;48.244;9.188;2024-02-04T12:33:03;0.90;;;0.63;;
75450;SDS011;64029;48.244;9.188;2024-02-04T12:35:31;2.80;;;0.70;;
75450;SDS011;64029;48.244;9.188;2024-02-04T12:38:00;0.90;;;0.70;;
75450;SDS011;64029;48.244;9.188;2024-02-04T12:40:28;0.90;;;0.60;;
75450;SDS011;64029;48.244;9.188;2024-02-04T12:42:57;0.80;;;0.70;;
75450;SDS011;64029;48.244;9.188;2024-02-04T12:45:24;0.90;;;0.70;;
75450;SDS011;64029;48.244;9.188;2024-02-04T12:47:52;0.70;;;0.57;;
75450;SDS011;64029;48.244;9.188;2024-02-04T12:50:20;0.70;;;0.50;;
75450;SDS011;64029;48.244;9.188;2024-02-04T12:52:48;1.10;;;0.73;;
75450;SDS011;64029;48.244;9.188;2024-02-04T12:55:21;1.43;;;0.70;;
75450;SDS011;64029;48.244;9.188;2024-02-04T12:57:49;1.87;;;0.70;;
75450;SDS011;64029;48.244;9.188;2024-02-04T13:00:17;1.73;;;0.70;;
75450;SDS011;64029;48.244;9.188;2024-02-04T13:02:44;0.80;;;0.60;;
75450;SDS011;64029;48.244;9.188;2024-02-04T13:05:24;1.63;;;1.10;;
75450;SDS011;64029;48.244;9.188;2024-02-04T13:07:52;2.60;;;1.23;;
75450;SDS011;64029;48.244;9.188;2024-02-04T13:10:22;1.23;;;1.13;;
75450;SDS011;64029;48.244;9.188;2024-02-04T13:12:59;4.93;;;3.07;;
75450;SDS011;64029;48.244;9.188;2024-02-04T13:15:31;1.47;;;1.27;;
75450;SDS011;64029;48.244;9.188;2024-02-04T13:17:59;1.30;;;1.10;;
75450;SDS011;64029;48.244;9.188;2024-02-04T13:20:26;2.33;;;1.07;;
75450;SDS011;64029;48.244;9.188;2024-02-04T13:22:53;2.17;;;1.13;;
75450;SDS011;64029;48.244;9.188;2024-02-04T13:25:21;1.67;;;0.80;;
75450;SDS011;64029;48.244;9.188;2024-02-04T13:27:48;1.47;;;1.07;;
75450;SDS011;64029;48.244;9.188;2024-02-04T13:30:16;3.20;;;0.80;;
75450;SDS011;64029;48.244;9.188;2024-02-04T13:32:44;1.20;;;0.87;;
75450;SDS011;64029;48.244;9.188;2024-02-04T13:35:11;1.50;;;0.80;;
75450;SDS011;64029;48.244;9.188;2024-02-04T13:37:41;3.33;;;1.00;;
75450;SDS011;64029;48.244;9.188;2024-02-04T13:40:11;2.10;;;0.87;;
75450;SDS011;64029;48.244;9.188;2024-02-04T13:42:41;0.87;;;0.70;;
75450;SDS011;64029;48.244;9.188;2024-02-04T13:45:08;0.70;;;0.63;;
75450;SDS011;64029;48.244;9.188;2024-02-04T13:47:35;0.90;;;0.80;;
75450;SDS011;64029;48.244;9.188;2024-02-04T13:50:02;1.33;;;0.80;;
75450;SDS011;64029;48.244;9.188;2024-02-04T13:52:29;0.83;;;0.70;;
75450;SDS011;64029;48.244;9.188;2024-02-04T13:54:56;1.10;;;0.93;;
75450;SDS011;64029;48.244;9.188;2024-02-04T13:57:22;2.43;;;1.60;;
75450;SDS011;64029;48.244;9.188;2024-02-04T13:59:51;2.07;;;1.80;;
75450;SDS011;64029;48.244;9.188;2024-02-04T14:02:17;1.83;;;1.30;;
75450;SDS011;64029;48.244;9.188;2024-02-04T14:04:44;1.20;;;1.10;;
75450;SDS011;64029;48.244;9.188;2024-02-04T14:07:11;1.50;;;1.30;;
75450;SDS011;64029;48.244;9.188;2024-02-04T14:09:38;1.47;;;1.10;;
75450;SDS011;64029;48.244;9.188;2024-02-04T14:12:05;2.57;;;0.93;;
75450;SDS011;64029;48.244;9.188;2024-02-04T14:14:33;1.50;;;0.93;;
75450;SDS011;64029;48.244;9.188;2024-02-04T14:17:02;0.90;;;0.80;;
75450;SDS011;64029;48.244;9.188;2024-02-04T14:19:29;1.30;;;0.93;;
75450;SDS011;64029;48.244;9.188;2024-02-04T14:21:55;1.97;;;1.00;;
75450;SDS011;64029;48.244;9.188;2024-02-04T14:24:22;2.47;;;1.50;;
75450;SDS011;64029;48.244;9.188;2024-02-04T14:26:55;3.43;;;1.50;;
75450;SDS011;64029;48.244;9.188;2024-02-04T14:29:22;2.00;;;1.47;;
75450;SDS011;64029;48.244;9.188;2024-02-04T14:31:49;1.30;;;1.13;;
75450;SDS011;64029;48.244;9.188;2024-02-04T14:34:17;2.03;;;1.80;;
75450;SDS011;64029;48.244;9.188;2024-02-04T14:36:44;1.50;;;1.40;;
75450;SDS011;64029;48.244;9.188;2024-02-04T14:39:11;4.30;;;2.53;;
75450;SDS011;64029;48.244;9.188;2024-02-04T14:41:38;3.00;;;2.13;;
75450;SDS011;64029;48.244;9.188;2024-02-04T14:44:05;2.07;;;1.60;;
75450;SDS011;64029;48.244;9.188;2024-02-04T14:46:32;2.90;;;1.80;;
75450;SDS011;64029;48.244;9.188;2024-02-04T14:49:02;1.40;;;1.20;;
75450;SDS011;64029;48.244;9.188;2024-02-04T14:51:30;1.10;;;1.00;;